createdAt,value
2023-05-05T00:02:30.383Z,4.73
2023-05-05T00:05:15.651Z,10.88
2023-05-05T00:08:00.526Z,7.18
2023-05-05T00:10:47.068Z,5.03
2023-05-05T00:13:31.775Z,4.13
2023-05-05T00:16:17.436Z,8.93
2023-05-05T00:19:02.541Z,6.00
2023-05-05T00:21:47.680Z,5.57
2023-05-05T00:24:32.517Z,5.68
2023-05-05T00:27:17.660Z,5.88
2023-05-05T00:30:02.460Z,10.03
2023-05-05T00:32:48.602Z,6.95
2023-05-05T00:35:34.111Z,5.50
2023-05-05T00:38:19.159Z,5.65
2023-05-05T00:41:04.128Z,12.10
2023-05-05T00:43:49.128Z,6.87
2023-05-05T00:46:34.785Z,6.05
2023-05-05T00:49:19.810Z,5.65
2023-05-05T00:52:06.475Z,7.20
2023-05-05T00:54:51.860Z,7.80
2023-05-05T00:57:37.002Z,7.47
2023-05-05T01:00:22.784Z,5.90
2023-05-05T01:03:08.152Z,5.00
2023-05-05T01:06:26.729Z,6.88
2023-05-05T01:09:26.058Z,5.82
2023-05-05T01:12:31.817Z,6.10
2023-05-05T01:15:41.541Z,5.60
2023-05-05T01:18:41.813Z,11.18
2023-05-05T01:21:43.044Z,7.10
2023-05-05T01:25:05.762Z,6.10
2023-05-05T01:28:09.594Z,5.30
2023-05-05T01:31:27.040Z,6.05
2023-05-05T01:34:16.521Z,6.47
2023-05-05T01:37:11.260Z,7.13
2023-05-05T01:40:01.616Z,6.18
2023-05-05T01:42:48.379Z,7.27
2023-05-05T01:45:37.851Z,6.57
2023-05-05T01:48:24.291Z,6.65
2023-05-05T01:51:10.306Z,6.28
2023-05-05T01:53:59.076Z,8.48
2023-05-05T01:56:46.078Z,8.33
2023-05-05T01:59:33.485Z,5.50
2023-05-05T02:02:20.682Z,8.48
2023-05-05T02:05:06.739Z,5.88
2023-05-05T02:07:54.898Z,5.70
2023-05-05T02:10:40.772Z,6.10
2023-05-05T02:13:28.554Z,7.05
2023-05-05T02:16:13.896Z,5.93
2023-05-05T02:19:04.894Z,7.22
2023-05-05T02:21:49.845Z,7.22
2023-05-05T02:24:35.556Z,6.47
2023-05-05T02:27:22.859Z,6.10
2023-05-05T02:30:11.053Z,6.13
2023-05-05T02:33:05.611Z,6.53
2023-05-05T02:35:53.199Z,7.30
2023-05-05T02:38:42.799Z,9.93
2023-05-05T02:41:30.143Z,6.90
2023-05-05T02:44:16.705Z,7.35
2023-05-05T02:47:03.847Z,6.25
2023-05-05T02:49:48.925Z,6.53
2023-05-05T02:52:34.982Z,5.60
2023-05-05T02:55:20.284Z,7.00
2023-05-05T02:58:07.571Z,6.68
2023-05-05T03:01:01.497Z,7.30
2023-05-05T03:03:59.350Z,5.70
2023-05-05T03:06:48.930Z,8.00
2023-05-05T03:09:39.741Z,7.80
2023-05-05T03:12:30.389Z,7.00
2023-05-05T03:15:15.891Z,6.70
2023-05-05T03:18:03.059Z,6.43
2023-05-05T03:20:48.533Z,10.53
2023-05-05T03:23:35.477Z,6.93
2023-05-05T03:26:20.576Z,12.13
2023-05-05T03:29:06.736Z,5.25
2023-05-05T03:31:51.497Z,7.22
2023-05-05T03:34:37.603Z,7.57
2023-05-05T03:37:22.474Z,7.93
2023-05-05T03:40:08.204Z,8.32
2023-05-05T03:42:53.596Z,9.98
2023-05-05T03:45:38.624Z,7.20
2023-05-05T03:48:23.403Z,6.63
2023-05-05T03:51:08.766Z,8.55
2023-05-05T03:53:53.622Z,7.43
2023-05-05T03:56:38.372Z,7.40
2023-05-05T03:59:23.556Z,6.25
2023-05-05T04:02:08.543Z,8.87
2023-05-05T04:04:53.739Z,7.50
2023-05-05T04:07:38.600Z,9.50
2023-05-05T04:10:23.845Z,7.25
2023-05-05T04:13:08.733Z,7.72
2023-05-05T04:15:53.822Z,6.47
2023-05-05T04:18:38.637Z,10.20
2023-05-05T04:21:23.725Z,11.45
2023-05-05T04:24:08.552Z,7.57
2023-05-05T04:26:53.870Z,9.30
2023-05-05T04:29:38.826Z,6.00
2023-05-05T04:32:24.052Z,8.32
2023-05-05T04:35:09.097Z,7.05
2023-05-05T04:37:54.756Z,8.48
2023-05-05T04:40:41.148Z,8.15
2023-05-05T04:43:26.009Z,8.20
2023-05-05T04:46:10.902Z,8.18
2023-05-05T04:48:56.041Z,8.18
2023-05-05T04:51:42.244Z,7.47
2023-05-05T04:54:27.196Z,7.65
2023-05-05T04:57:11.911Z,6.47
2023-05-05T04:59:57.110Z,6.20
2023-05-05T05:02:42.385Z,7.60
2023-05-05T05:05:27.572Z,7.32
2023-05-05T05:08:12.528Z,8.15
2023-05-05T05:10:58.486Z,7.03
2023-05-05T05:13:43.369Z,7.13
2023-05-05T05:16:28.550Z,7.70
2023-05-05T05:19:13.809Z,10.00
2023-05-05T05:21:58.929Z,8.13
2023-05-05T05:24:43.983Z,6.43
2023-05-05T05:27:29.055Z,8.05
2023-05-05T05:30:14.442Z,7.55
2023-05-05T05:32:59.420Z,7.28
2023-05-05T05:35:44.264Z,9.45
2023-05-05T05:38:28.988Z,10.40
2023-05-05T05:41:13.909Z,8.77
2023-05-05T05:43:58.941Z,11.70
2023-05-05T05:46:44.091Z,7.20
2023-05-05T05:49:29.186Z,7.93
2023-05-05T05:52:13.880Z,7.43
2023-05-05T05:54:58.943Z,9.27
2023-05-05T05:57:43.781Z,6.85
2023-05-05T06:00:28.947Z,8.60
2023-05-05T06:03:14.282Z,8.30
2023-05-05T06:05:59.789Z,7.00
2023-05-05T06:08:44.804Z,7.53
2023-05-05T06:11:30.074Z,7.03
2023-05-05T06:14:14.955Z,7.13
2023-05-05T06:17:00.135Z,8.88
2023-05-05T06:19:45.066Z,8.40
2023-05-05T06:22:30.238Z,7.72
2023-05-05T06:25:15.036Z,6.88
2023-05-05T06:28:00.222Z,6.93
2023-05-05T06:30:45.603Z,6.32
2023-05-05T06:33:30.397Z,8.07
2023-05-05T06:36:15.160Z,10.50
2023-05-05T06:39:00.404Z,11.15
2023-05-05T06:41:45.407Z,9.40
2023-05-05T06:44:31.087Z,8.20
2023-05-05T06:47:16.022Z,9.40
2023-05-05T06:50:00.920Z,11.68
2023-05-05T06:52:46.058Z,10.45
2023-05-05T06:55:31.468Z,8.82
2023-05-05T06:58:16.280Z,8.88
2023-05-05T07:01:01.564Z,7.03
2023-05-05T07:03:46.474Z,9.15
2023-05-05T07:06:31.998Z,9.55
2023-05-05T07:09:17.526Z,9.18
2023-05-05T07:12:03.551Z,8.40
2023-05-05T07:14:48.364Z,11.73
2023-05-05T07:17:33.248Z,9.27
2023-05-05T07:20:18.110Z,9.52
2023-05-05T07:23:03.094Z,10.00
2023-05-05T07:25:48.659Z,8.77
2023-05-05T07:28:34.612Z,11.83
2023-05-05T07:31:19.764Z,10.25
2023-05-05T07:34:04.954Z,13.18
2023-05-05T07:36:50.199Z,9.40
2023-05-05T07:39:35.032Z,10.45
2023-05-05T07:42:21.001Z,9.43
2023-05-05T07:45:06.906Z,12.80
2023-05-05T07:47:51.931Z,10.30
2023-05-05T07:50:36.967Z,10.02
2023-05-05T07:53:22.012Z,10.20
2023-05-05T07:56:08.623Z,10.60
2023-05-05T07:58:53.799Z,15.15
2023-05-05T08:01:39.681Z,14.25
2023-05-05T08:04:24.603Z,11.27
2023-05-05T08:07:10.469Z,14.88
2023-05-05T08:09:55.240Z,15.07
2023-05-05T08:12:40.365Z,10.98
2023-05-05T08:15:25.676Z,11.77
2023-05-05T08:18:10.673Z,11.43
2023-05-05T08:20:56.000Z,10.90
2023-05-05T08:23:40.902Z,7.17
2023-05-05T08:26:26.081Z,8.40
2023-05-05T08:29:11.457Z,10.32
2023-05-05T08:31:56.453Z,9.27
2023-05-05T08:34:41.370Z,10.82
2023-05-05T08:37:26.342Z,8.83
2023-05-05T08:40:15.945Z,8.35
2023-05-05T08:43:01.355Z,10.80
2023-05-05T08:45:46.973Z,13.60
2023-05-05T08:48:33.563Z,12.13
2023-05-05T08:51:20.153Z,10.20
2023-05-05T08:54:06.824Z,14.27
2023-05-05T08:56:52.596Z,15.48
2023-05-05T08:59:38.159Z,11.27
2023-05-05T09:02:28.323Z,9.70
2023-05-05T09:05:13.906Z,9.90
2023-05-05T09:07:58.945Z,11.27
2023-05-05T09:10:44.535Z,10.13
2023-05-05T09:13:32.770Z,12.35
2023-05-05T09:16:17.499Z,10.38
2023-05-05T09:19:05.851Z,10.40
2023-05-05T09:21:51.029Z,11.20
2023-05-05T09:24:36.082Z,11.50
2023-05-05T09:27:22.872Z,12.88
2023-05-05T09:30:09.971Z,14.10
2023-05-05T09:32:55.478Z,14.03
2023-05-05T09:35:54.479Z,12.70
2023-05-05T09:38:39.200Z,12.43
2023-05-05T09:41:41.446Z,10.07
2023-05-05T09:44:37.251Z,11.80
2023-05-05T09:47:34.849Z,11.07
2023-05-05T09:50:20.315Z,12.97
2023-05-05T09:53:05.094Z,10.20
2023-05-05T09:56:00.489Z,9.77
2023-05-05T09:58:45.919Z,6.63
2023-05-05T10:01:31.036Z,5.82
2023-05-05T10:04:30.153Z,5.23
2023-05-05T10:07:24.813Z,11.32
2023-05-05T10:10:12.260Z,14.73
2023-05-05T10:12:58.469Z,5.78
2023-05-05T10:15:45.597Z,8.77
2023-05-05T10:18:32.423Z,6.57
2023-05-05T10:21:20.496Z,7.28
2023-05-05T10:24:17.445Z,6.35
2023-05-05T10:27:19.530Z,10.88
2023-05-05T10:30:06.733Z,9.23
2023-05-05T10:33:07.872Z,8.97
2023-05-05T10:36:01.445Z,10.43
2023-05-05T10:38:46.513Z,10.45
2023-05-05T10:41:33.204Z,10.20
2023-05-05T10:44:19.248Z,11.25
2023-05-05T10:47:05.757Z,9.10
2023-05-05T10:50:03.861Z,10.20
2023-05-05T10:52:58.247Z,9.30
2023-05-05T10:56:00.397Z,9.88
2023-05-05T10:58:59.165Z,6.97
2023-05-05T11:01:45.815Z,7.87
2023-05-05T11:04:31.058Z,5.57
2023-05-05T11:07:21.214Z,6.40
2023-05-05T11:10:08.055Z,4.85
2023-05-05T11:13:02.832Z,5.43
2023-05-05T11:15:49.285Z,2.80
2023-05-05T11:18:44.173Z,2.85
2023-05-05T11:21:29.183Z,10.10
2023-05-05T11:24:33.241Z,4.22
2023-05-05T11:27:18.625Z,6.55
2023-05-05T11:30:03.580Z,6.83
2023-05-05T11:33:30.953Z,6.32
2023-05-05T11:36:17.701Z,5.78
2023-05-05T11:39:22.838Z,2.70
2023-05-05T11:42:23.192Z,6.70
2023-05-05T11:45:22.990Z,4.53
2023-05-05T11:48:26.988Z,4.07
2023-05-05T11:51:13.634Z,5.57
2023-05-05T11:53:59.314Z,6.57
2023-05-05T11:56:55.173Z,4.32
2023-05-05T12:00:08.966Z,7.90
2023-05-05T12:02:57.406Z,7.38
2023-05-05T12:05:42.760Z,6.10
2023-05-05T12:08:28.422Z,8.20
2023-05-05T12:11:13.305Z,5.95
2023-05-05T12:14:11.426Z,5.50
2023-05-05T12:17:05.625Z,7.93
2023-05-05T12:19:53.480Z,5.80
2023-05-05T12:22:39.525Z,8.85
2023-05-05T12:25:24.633Z,9.30
2023-05-05T12:28:09.741Z,7.10
2023-05-05T12:30:58.731Z,6.65
2023-05-05T12:33:44.183Z,7.63
2023-05-05T12:36:30.687Z,6.60
2023-05-05T12:39:16.105Z,7.65
2023-05-05T12:42:05.199Z,9.67
2023-05-05T12:44:50.131Z,6.53
2023-05-05T12:47:36.696Z,10.77
2023-05-05T12:50:34.009Z,7.93
2023-05-05T12:53:26.136Z,7.50
2023-05-05T12:56:34.700Z,7.43
2023-05-05T12:59:22.218Z,9.32
2023-05-05T13:02:08.196Z,9.20
2023-05-05T13:04:54.003Z,8.18
2023-05-05T13:07:52.233Z,7.30
2023-05-05T13:10:37.554Z,7.13
2023-05-05T13:13:22.498Z,8.73
2023-05-05T13:16:07.785Z,6.90
2023-05-05T13:18:53.522Z,6.30
2023-05-05T13:21:38.618Z,9.77
2023-05-05T13:24:38.180Z,8.93
2023-05-05T13:27:29.830Z,9.88
2023-05-05T13:30:14.866Z,7.55
2023-05-05T13:33:00.023Z,6.18
2023-05-05T13:35:45.215Z,8.27
2023-05-05T13:38:32.899Z,7.67
2023-05-05T13:41:18.463Z,7.18
2023-05-05T13:44:03.648Z,7.28
2023-05-05T13:46:48.920Z,7.45
2023-05-05T13:49:34.985Z,6.88
2023-05-05T13:52:20.115Z,6.77
2023-05-05T13:55:05.837Z,7.90
2023-05-05T13:57:51.522Z,7.07
2023-05-05T14:00:37.725Z,7.50
2023-05-05T14:03:23.706Z,6.85
2023-05-05T14:06:09.068Z,5.57
2023-05-05T14:08:54.039Z,6.30
2023-05-05T14:11:38.909Z,5.57
2023-05-05T14:14:23.808Z,6.45
2023-05-05T14:17:09.086Z,6.43
2023-05-05T14:19:53.793Z,5.07
2023-05-05T14:22:38.661Z,5.45
2023-05-05T14:25:23.686Z,7.40
2023-05-05T14:28:08.627Z,4.43
2023-05-05T14:30:53.714Z,8.23
2023-05-05T14:33:38.556Z,4.67
2023-05-05T14:36:23.727Z,5.90
2023-05-05T14:39:08.796Z,5.55
2023-05-05T14:41:53.502Z,5.97
2023-05-05T14:44:38.322Z,13.55
2023-05-05T14:47:24.369Z,11.53
2023-05-05T14:50:10.091Z,9.65
2023-05-05T14:52:55.339Z,9.60
2023-05-05T14:55:40.178Z,9.43
2023-05-05T14:58:25.247Z,5.97
2023-05-05T15:01:10.070Z,9.60
2023-05-05T15:03:55.636Z,6.60
2023-05-05T15:06:40.828Z,4.07
2023-05-05T15:09:26.125Z,2.90
2023-05-05T15:12:10.962Z,4.13
2023-05-05T15:14:56.302Z,3.00
2023-05-05T15:17:41.634Z,3.28
2023-05-05T15:20:26.877Z,3.80
2023-05-05T15:23:12.073Z,2.97
2023-05-05T15:25:57.238Z,2.83
2023-05-05T15:28:42.250Z,2.30
2023-05-05T15:31:27.295Z,4.38
2023-05-05T15:34:12.265Z,5.60
2023-05-05T15:36:57.281Z,3.63
2023-05-05T15:39:42.168Z,12.32
2023-05-05T15:42:27.155Z,3.10
2023-05-05T15:45:12.173Z,2.92
2023-05-05T15:47:57.462Z,2.63
2023-05-05T15:50:42.176Z,3.17
2023-05-05T15:53:27.512Z,2.22
2023-05-05T15:56:12.541Z,3.50
2023-05-05T15:58:57.506Z,3.33
2023-05-05T16:01:42.612Z,3.88
2023-05-05T16:04:28.070Z,8.43
2023-05-05T16:07:13.281Z,6.18
2023-05-05T16:09:58.014Z,8.77
2023-05-05T16:12:43.264Z,4.65
2023-05-05T16:15:27.975Z,4.40
2023-05-05T16:18:13.190Z,6.93
2023-05-05T16:20:57.910Z,3.97
2023-05-05T16:23:43.408Z,3.20
2023-05-05T16:26:29.018Z,8.55
2023-05-05T16:29:14.032Z,5.43
2023-05-05T16:31:59.212Z,4.32
2023-05-05T16:34:44.243Z,4.32
2023-05-05T16:37:29.162Z,6.80
2023-05-05T16:40:14.238Z,4.55
2023-05-05T16:42:58.896Z,5.50
2023-05-05T16:45:43.914Z,4.50
2023-05-05T16:48:28.787Z,5.07
2023-05-05T16:51:14.083Z,3.93
2023-05-05T16:53:59.103Z,8.80
2023-05-05T16:56:44.258Z,5.18
2023-05-05T16:59:31.397Z,4.80
2023-05-05T17:02:16.891Z,5.53
2023-05-05T17:05:02.401Z,3.20
2023-05-05T17:07:50.215Z,5.43
2023-05-05T17:10:35.010Z,3.95
2023-05-05T17:13:19.877Z,3.45
2023-05-05T17:16:04.872Z,2.67
2023-05-05T17:18:49.984Z,3.70
2023-05-05T17:21:35.036Z,3.22
2023-05-05T17:24:20.654Z,2.88
2023-05-05T17:27:05.911Z,4.72
2023-05-05T17:29:51.643Z,5.88
2023-05-05T17:32:37.035Z,4.97
2023-05-05T17:35:22.267Z,3.15
2023-05-05T17:38:07.571Z,7.65
2023-05-05T17:40:52.749Z,4.63
2023-05-05T17:43:37.549Z,4.32
2023-05-05T17:46:22.774Z,3.23
2023-05-05T17:49:07.691Z,4.05
2023-05-05T17:51:52.817Z,4.55
2023-05-05T17:54:37.698Z,7.32
2023-05-05T17:57:22.995Z,6.13
2023-05-05T18:00:08.857Z,4.90
2023-05-05T18:02:53.898Z,5.95
2023-05-05T18:05:39.102Z,4.20
2023-05-05T18:08:25.079Z,4.63
2023-05-05T18:11:10.543Z,6.35
2023-05-05T18:13:55.852Z,4.73
2023-05-05T18:16:43.664Z,4.72
2023-05-05T18:19:28.457Z,7.07
2023-05-05T18:22:13.794Z,5.50
2023-05-05T18:24:59.605Z,7.95
2023-05-05T18:27:45.089Z,8.03
2023-05-05T18:30:30.300Z,7.18
2023-05-05T18:33:15.249Z,6.93
2023-05-05T18:36:02.179Z,11.40
2023-05-05T18:38:47.228Z,10.07
2023-05-05T18:41:32.149Z,12.43
2023-05-05T18:44:18.780Z,8.38
2023-05-05T18:47:03.986Z,10.02
2023-05-05T18:49:49.656Z,8.77
2023-05-05T18:52:34.695Z,11.15
2023-05-05T18:55:19.563Z,9.30
2023-05-05T18:58:04.728Z,9.55
2023-05-05T19:00:50.734Z,8.75
2023-05-05T19:03:35.497Z,10.23
2023-05-05T19:06:20.374Z,9.18
2023-05-05T19:09:05.685Z,11.70
2023-05-05T19:11:50.853Z,11.13
2023-05-05T19:14:36.005Z,10.80
2023-05-05T19:17:21.172Z,11.38
2023-05-05T19:20:06.815Z,10.48
2023-05-05T19:22:51.824Z,10.70
2023-05-05T19:25:36.826Z,12.45
2023-05-05T19:28:21.945Z,15.30
2023-05-05T19:31:07.145Z,12.95
2023-05-05T19:33:51.896Z,12.13
2023-05-05T19:36:38.063Z,11.10
2023-05-05T19:39:22.778Z,9.77
2023-05-05T19:42:07.930Z,11.10
2023-05-05T19:44:52.880Z,13.25
2023-05-05T19:47:38.063Z,10.90
2023-05-05T19:50:22.997Z,11.20
2023-05-05T19:53:07.890Z,11.43
2023-05-05T19:55:52.726Z,13.05
2023-05-05T19:58:56.274Z,11.07
2023-05-05T20:01:41.421Z,15.05
2023-05-05T20:04:26.731Z,12.07
2023-05-05T20:07:11.542Z,15.57
2023-05-05T20:09:56.826Z,12.65
2023-05-05T20:12:48.151Z,11.38
2023-05-05T20:15:33.592Z,16.05
2023-05-05T20:18:18.545Z,17.67
2023-05-05T20:21:03.640Z,18.10
2023-05-05T20:23:48.824Z,17.35
2023-05-05T20:26:33.928Z,12.68
2023-05-05T20:29:20.066Z,12.32
2023-05-05T20:32:05.734Z,12.23
2023-05-05T20:34:50.725Z,14.57
2023-05-05T20:37:35.713Z,17.58
2023-05-05T20:40:20.894Z,13.95
2023-05-05T20:43:05.838Z,13.48
2023-05-05T20:45:51.655Z,13.00
2023-05-05T20:48:38.219Z,11.73
2023-05-05T20:51:29.085Z,10.75
2023-05-05T20:54:14.164Z,11.35
2023-05-05T20:56:59.239Z,13.80
2023-05-05T20:59:44.192Z,14.73
2023-05-05T21:02:29.221Z,12.85
2023-05-05T21:05:14.648Z,13.55
2023-05-05T21:08:01.149Z,13.68
2023-05-05T21:10:46.331Z,12.77
2023-05-05T21:13:31.923Z,15.73
2023-05-05T21:16:17.066Z,16.55
2023-05-05T21:19:02.252Z,13.75
2023-05-05T21:21:47.759Z,15.15
2023-05-05T21:24:32.600Z,12.75
2023-05-05T21:27:17.800Z,14.00
2023-05-05T21:30:02.693Z,17.38
2023-05-05T21:32:47.713Z,15.27
2023-05-05T21:35:32.779Z,15.32
2023-05-05T21:38:17.930Z,16.02
2023-05-05T21:41:03.608Z,16.13
2023-05-05T21:43:48.599Z,16.58
2023-05-05T21:46:33.893Z,18.42
2023-05-05T21:49:18.726Z,16.25
2023-05-05T21:52:03.938Z,15.25
2023-05-05T21:54:49.095Z,16.23
2023-05-05T21:57:34.060Z,17.60
2023-05-05T22:00:19.398Z,16.52
2023-05-05T22:03:04.882Z,16.77
2023-05-05T22:05:50.027Z,16.90
2023-05-05T22:08:34.866Z,17.70
2023-05-05T22:11:19.779Z,19.55
2023-05-05T22:14:04.732Z,18.13
2023-05-05T22:16:49.706Z,18.63
2023-05-05T22:19:34.895Z,18.92
2023-05-05T22:22:19.529Z,17.73
2023-05-05T22:25:05.773Z,21.00
2023-05-05T22:27:50.558Z,21.10
2023-05-05T22:30:35.893Z,23.35
2023-05-05T22:33:21.498Z,18.08
2023-05-05T22:36:08.780Z,20.27
2023-05-05T22:38:54.011Z,20.35
2023-05-05T22:41:38.800Z,18.77
2023-05-05T22:44:23.866Z,19.73
2023-05-05T22:47:09.058Z,21.77
2023-05-05T22:49:54.147Z,19.80
2023-05-05T22:52:39.038Z,23.45
2023-05-05T22:55:24.665Z,21.67
2023-05-05T22:58:09.940Z,21.75
2023-05-05T23:00:55.006Z,18.52
2023-05-05T23:03:39.774Z,22.57
2023-05-05T23:06:24.558Z,18.95
2023-05-05T23:09:09.632Z,20.98
2023-05-05T23:11:54.305Z,19.55
2023-05-05T23:14:39.506Z,19.83
2023-05-05T23:17:24.462Z,20.23
2023-05-05T23:20:11.907Z,18.27
2023-05-05T23:22:56.947Z,21.60
2023-05-05T23:25:42.102Z,20.55
2023-05-05T23:28:27.003Z,19.77
2023-05-05T23:31:12.200Z,20.70
2023-05-05T23:33:57.114Z,21.13
2023-05-05T23:36:42.021Z,21.45
2023-05-05T23:39:27.106Z,17.73
2023-05-05T23:42:12.386Z,20.58
2023-05-05T23:44:57.127Z,20.33
2023-05-05T23:47:42.464Z,17.60
2023-05-05T23:50:27.711Z,16.13
2023-05-05T23:53:12.780Z,19.45
2023-05-05T23:55:57.687Z,19.05
2023-05-05T23:58:42.827Z,17.13
